Woodville, MS

5:59 AM CST on December 27, 2014 (GMT -0600)
False River | Change Station
CLOSE
Current Station
Airport
Location: New Roads False River Regiona,
Elevation: 39 ft
Nearby Weather Stations
Active Advisory: Areal Flood Watch

Elev 39 ft 30.72 °N, 91.48 °W | Updated 44 minutes ago

Overcast
Overcast
60 °F
Feels Like 60 °F
N
7
Wind Variable Wind from East

Today
High -- | Low -- °F
--% Chance of Precip.
Yesterday
High -- | Low -- °F
Precip. -- in
7:02 AM 5:10 PM
Waxing Crescent, 36% visible
Pressure 30.09 in
Visibility 10.0 miles
Clouds Scattered Clouds 500 ft
Scattered Clouds 1400 ft
Overcast 2000 ft
Dew Point 59 °F
Humidity 96%
Rainfall 0.00 in
Snow Depth Not available.
UV 0 out of 12
Pollen 4.20 out of 12
Air Quality Not available.
Flu Activity Not available.
METAR KHZR 271115Z AUTO 08006KT 10SM SCT005 SCT014 OVC020 16/15 A3009 RMK AO2 T01570150

More Conditions Fewer Conditions

Pressure 30.09 in
Visibility 10.0 miles
Clouds Scattered Clouds 500 ft
Scattered Clouds 1400 ft
Overcast 2000 ft
Dew Point 59 °F
Humidity 96%
Rainfall 0.00 in
Snow Depth Not available.
UV 0 out of 12
Pollen 4.20 out of 12
Air Quality Not available.
Flu Activity Not available.
METAR KHZR 271115Z AUTO 08006KT 10SM SCT005 SCT014 OVC020 16/15 A3009 RMK AO2 T01570150

More Conditions Fewer Conditions

10-Day Weather Forecast

Almanac

Astronomy

Dec. 27, 2014 Rise Set
Actual Time
Civil Twilight
Nautical Twilight
Astronomical Twilight
Moon
Length of Visible Light
Length of Day
Tomorrow will be .
, % of the Moon is Illuminated

Today's Extremes

State Highs State Lows

Community

WunderPhotos

Upload Photos

1,780,885 photos uploaded!

WunderBlogs® & News

Nearby

Air Quality

  Air Quality AQ Index Pollutant
Not available.

Snow Depth

Station Depth Elevation

Earthquake Activity

City Distance Mag. Time & Date
Minimum magnitude displayed is 2.5.

Coastal Water Temperatures

Place Temperature

Nearby Weather Stations